Time;durP1;ratioP1;P1;durP2;ratioP2;P2;SDS_P1;SDS_P2;PMS_P1;PMS_P2;Temp;Humidity;BMP_temperature;BMP_pressure;BME280_temperature;BME280_humidity;BME280_pressure;Samples;Min_cycle;Max_cycle;Signal;HPM_P1;HPM_P2
2022/04/08 00:00:14;;;;;;;2.33;1.00;;;;;;;8.08;88.67;95404.59;10422304;27;98679;-62
2022/04/08 00:05:17;;;;;;;1.20;1.00;;;;;;;8.08;89.18;95400.22;10435231;27;97343;-64
2022/04/08 00:10:20;;;;;;;2.90;1.00;;;;;;;8.10;88.77;95392.25;10414527;28;96895;-62
2022/04/08 00:15:24;;;;;;;0.93;0.73;;;;;;;8.06;88.77;95364.94;10419500;27;96977;-62
2022/04/08 00:20:27;;;;;;;0.80;0.60;;;;;;;8.10;88.53;95371.44;10434271;27;97096;-63
2022/04/08 00:25:31;;;;;;;2.17;0.70;;;;;;;8.15;88.53;95390.00;10428032;27;96838;-63
2022/04/08 00:30:35;;;;;;;1.15;0.88;;;;;;;8.14;88.20;95373.59;10424821;27;97046;-62
2022/04/08 00:35:38;;;;;;;1.55;0.95;;;;;;;8.14;88.37;95372.78;10420114;27;97127;-64
2022/04/08 00:40:41;;;;;;;1.25;0.70;;;;;;;8.12;88.50;95374.72;10425888;27;97032;-63
2022/04/08 00:45:46;;;;;;;1.50;0.80;;;;;;;8.05;88.59;95364.13;10451191;27;97520;-62
2022/04/08 00:50:49;;;;;;;2.42;0.80;;;;;;;8.04;88.48;95367.69;10421883;27;96766;-62
2022/04/08 00:55:52;;;;;;;1.85;0.80;;;;;;;8.02;88.51;95361.00;10439112;27;97483;-62
2022/04/08 01:00:57;;;;;;;2.53;1.00;;;;;;;7.95;88.93;95366.81;10436694;27;97122;-63
2022/04/08 01:06:00;;;;;;;0.98;0.75;;;;;;;7.92;88.79;95359.31;10422443;27;96975;-62
2022/04/08 01:11:03;;;;;;;1.98;1.00;;;;;;;7.89;89.16;95372.63;10419361;27;98928;-63
2022/04/08 01:16:09;;;;;;;1.83;0.90;;;;;;;7.88;89.29;95363.19;10419345;27;99073;-65
2022/04/08 01:21:12;;;;;;;0.88;0.77;;;;;;;7.90;89.05;95356.03;10424545;27;97057;-63
2022/04/08 01:26:16;;;;;;;1.35;0.80;;;;;;;7.89;89.38;95357.03;10419646;27;96860;-62
2022/04/08 01:31:20;;;;;;;1.20;1.00;;;;;;;7.83;89.45;95360.22;10425712;27;98114;-62
2022/04/08 01:36:23;;;;;;;2.75;1.10;;;;;;;7.85;89.26;95342.69;10424423;27;97149;-62
2022/04/08 01:41:30;;;;;;;1.08;0.85;;;;;;;7.89;89.24;95344.03;10423768;27;98298;-63
2022/04/08 01:46:33;;;;;;;1.27;0.82;;;;;;;7.85;89.70;95328.88;10416804;27;96827;-62
2022/04/08 01:51:36;;;;;;;2.97;1.20;;;;;;;7.87;89.29;95322.53;10428303;27;99021;-63
2022/04/08 01:56:40;;;;;;;1.42;0.90;;;;;;;7.88;89.49;95323.38;10418789;27;97861;-63
2022/04/08 02:01:43;;;;;;;1.27;0.93;;;;;;;7.87;89.44;95319.94;10417924;27;97850;-63
2022/04/08 02:06:46;;;;;;;1.38;0.82;;;;;;;7.91;89.26;95310.88;10420353;27;96839;-62
2022/04/08 02:11:50;;;;;;;1.25;0.85;;;;;;;7.92;89.60;95307.28;10418848;27;97717;-62
2022/04/08 02:16:53;;;;;;;2.00;1.00;;;;;;;7.90;89.34;95309.25;10416232;27;98910;-62
2022/04/08 02:21:58;;;;;;;1.98;1.27;;;;;;;7.91;89.67;95294.44;10424716;27;96988;-62
2022/04/08 02:27:03;;;;;;;1.27;0.80;;;;;;;7.95;89.26;95295.78;10436501;27;96826;-62
2022/04/08 02:32:09;;;;;;;1.17;0.75;;;;;;;7.90;89.52;95292.84;10427200;27;98787;-62
2022/04/08 02:37:12;;;;;;;1.00;0.80;;;;;;;7.83;89.79;95297.81;10437130;27;99067;-63
2022/04/08 02:42:16;;;;;;;3.33;0.90;;;;;;;7.74;90.05;95290.97;10434059;27;99081;-64
2022/04/08 02:47:19;;;;;;;1.00;0.60;;;;;;;7.81;89.97;95278.97;10433319;27;100484;-62
2022/04/08 02:52:22;;;;;;;0.85;0.70;;;;;;;7.88;89.93;95274.78;10429489;27;96860;-62
2022/04/08 02:57:26;;;;;;;0.70;0.70;;;;;;;7.84;89.17;95263.06;10427667;27;96938;-62
2022/04/08 03:02:29;;;;;;;0.70;0.50;;;;;;;7.82;89.96;95259.78;10419436;27;98507;-62
2022/04/08 03:07:32;;;;;;;1.00;0.70;;;;;;;7.81;89.60;95242.56;10426929;27;97246;-62
2022/04/08 03:12:36;;;;;;;0.60;0.50;;;;;;;7.82;89.47;95243.38;10428736;27;97557;-64
2022/04/08 03:17:39;;;;;;;1.20;0.55;;;;;;;7.76;89.74;95239.63;10422104;27;97256;-62
2022/04/08 03:22:42;;;;;;;0.57;0.50;;;;;;;7.73;89.81;95229.53;10431911;27;97977;-63
2022/04/08 03:27:46;;;;;;;0.80;0.43;;;;;;;7.73;89.90;95226.91;10426029;27;96973;-62
2022/04/08 03:32:49;;;;;;;2.60;0.50;;;;;;;7.70;90.04;95214.22;10438325;27;97626;-62
2022/04/08 03:37:52;;;;;;;0.70;0.50;;;;;;;7.73;89.81;95195.72;10427124;27;96836;-62
2022/04/08 03:42:56;;;;;;;1.10;0.70;;;;;;;7.81;89.83;95193.16;10433907;27;97919;-62
2022/04/08 03:47:59;;;;;;;0.40;0.40;;;;;;;7.74;90.08;95194.78;10429845;27;97018;-62
2022/04/08 03:53:02;;;;;;;0.60;0.50;;;;;;;7.67;90.01;95184.16;10425785;27;97150;-62
2022/04/08 03:58:06;;;;;;;0.93;0.60;;;;;;;7.68;90.26;95179.78;10424860;27;96916;-63
2022/04/08 04:03:10;;;;;;;0.60;0.40;;;;;;;7.63;90.32;95172.47;10422708;27;97698;-62
2022/04/08 04:08:18;;;;;;;1.40;0.60;;;;;;;7.69;90.24;95165.81;10424704;27;100242;-62
2022/04/08 04:13:23;;;;;;;0.60;0.60;;;;;;;7.62;90.43;95170.03;10423164;27;96939;-63
2022/04/08 04:18:26;;;;;;;0.73;0.60;;;;;;;7.60;90.44;95163.19;10425373;27;96875;-62
2022/04/08 04:23:31;;;;;;;0.40;0.40;;;;;;;7.58;90.52;95159.13;10429773;27;98719;-67
2022/04/08 04:28:35;;;;;;;1.38;0.50;;;;;;;7.62;90.14;95154.44;10418506;27;97348;-62
2022/04/08 04:33:38;;;;;;;0.68;0.55;;;;;;;7.64;90.39;95157.69;10426099;27;98494;-63
2022/04/08 04:38:41;;;;;;;1.50;0.68;;;;;;;7.62;90.35;95149.22;10423931;27;97262;-63
2022/04/08 04:43:46;;;;;;;2.15;0.50;;;;;;;7.61;90.32;95145.78;10413727;27;97031;-63
2022/04/08 04:48:48;;;;;;;0.83;0.40;;;;;;;7.64;90.26;95147.28;10439116;27;97867;-62
2022/04/08 04:53:51;;;;;;;0.70;0.55;;;;;;;7.62;90.25;95144.84;10429452;27;99150;-62
2022/04/08 04:58:56;;;;;;;0.95;0.60;;;;;;;7.65;90.53;95144.53;10423056;27;96755;-62
2022/04/08 05:03:58;;;;;;;2.63;0.60;;;;;;;7.70;89.96;95138.84;10431269;27;97014;-65
2022/04/08 05:09:04;;;;;;;1.00;0.63;;;;;;;7.74;90.03;95133.19;10427558;27;97227;-62
2022/04/08 05:14:09;;;;;;;0.98;0.60;;;;;;;7.74;90.08;95137.56;10421314;27;98792;-63
2022/04/08 05:19:11;;;;;;;1.87;0.63;;;;;;;7.83;90.34;95121.03;10437061;27;96856;-63
2022/04/08 05:24:14;;;;;;;0.90;0.60;;;;;;;7.89;89.66;95124.75;10442937;27;96851;-63
2022/04/08 05:29:18;;;;;;;0.77;0.50;;;;;;;7.93;89.87;95115.69;10420179;27;96883;-62
2022/04/08 05:34:21;;;;;;;1.07;0.70;;;;;;;7.95;90.18;95114.53;10438237;27;96964;-62
2022/04/08 05:39:24;;;;;;;1.60;0.70;;;;;;;8.04;89.56;95101.56;10427075;27;97952;-62
2022/04/08 05:44:28;;;;;;;0.38;0.30;;;;;;;8.06;89.78;95094.41;10417778;27;98746;-63
2022/04/08 05:49:31;;;;;;;1.10;0.53;;;;;;;8.15;89.65;95098.66;10423583;27;100100;-63
2022/04/08 05:54:34;;;;;;;0.88;0.50;;;;;;;8.17;89.25;95091.50;10424429;27;96869;-63
2022/04/08 05:59:40;;;;;;;1.65;0.45;;;;;;;8.21;89.29;95090.22;10444495;27;96851;-63
2022/04/08 06:04:46;;;;;;;1.23;0.45;;;;;;;8.22;89.25;95091.84;10432854;27;96923;-62
2022/04/08 06:09:49;;;;;;;1.13;0.40;;;;;;;8.33;89.30;95096.72;10462622;27;96737;-62
2022/04/08 06:14:53;;;;;;;1.00;0.60;;;;;;;8.38;89.40;95098.84;10448673;27;96995;-62
2022/04/08 06:19:58;;;;;;;1.27;0.67;;;;;;;8.39;89.05;95099.66;10439128;27;97097;-64
2022/04/08 06:25:01;;;;;;;1.52;0.50;;;;;;;8.38;89.42;95096.25;10444225;27;97266;-62
2022/04/08 06:30:09;;;;;;;0.45;0.28;;;;;;;8.40;89.69;95089.09;10451768;27;96922;-62
2022/04/08 06:35:12;;;;;;;1.05;0.40;;;;;;;8.43;89.23;95090.53;10431943;27;98907;-64
2022/04/08 06:40:15;;;;;;;1.35;0.20;;;;;;;8.44;89.37;95086.97;10417533;27;96943;-64
2022/04/08 06:45:20;;;;;;;1.30;0.30;;;;;;;8.44;89.36;95081.75;10422602;27;96990;-63
2022/04/08 06:50:23;;;;;;;2.73;0.33;;;;;;;8.42;89.78;95086.31;10434678;27;97163;-63
2022/04/08 06:55:26;;;;;;;0.88;0.40;;;;;;;8.46;89.33;95082.41;10440721;27;96924;-63
2022/04/08 07:00:31;;;;;;;1.27;0.40;;;;;;;8.46;89.84;95079.81;10439299;27;98898;-63
2022/04/08 07:05:34;;;;;;;0.73;0.30;;;;;;;8.52;89.47;95073.97;10444041;27;101508;-62
2022/04/08 07:10:38;;;;;;;0.50;0.25;;;;;;;8.59;89.62;95077.53;10458840;27;97212;-62
2022/04/08 07:15:43;;;;;;;2.07;0.50;;;;;;;8.57;89.43;95071.69;10434278;27;102896;-62
2022/04/08 07:20:46;;;;;;;0.50;0.30;;;;;;;8.69;89.50;95077.34;10420058;27;96985;-64
2022/04/08 07:25:48;;;;;;;0.57;0.40;;;;;;;8.72;88.84;95077.03;10422927;27;97013;-62
2022/04/08 07:30:53;;;;;;;1.98;0.50;;;;;;;8.75;88.92;95075.88;10424618;27;96717;-63
2022/04/08 07:35:58;;;;;;;0.40;0.20;;;;;;;8.79;88.81;95056.34;10427156;27;96885;-65
2022/04/08 07:41:01;;;;;;;0.20;0.20;;;;;;;8.94;89.26;95083.34;10422169;27;96956;-62
2022/04/08 07:46:05;;;;;;;1.65;0.30;;;;;;;8.99;88.62;95065.41;10450800;27;97924;-63
2022/04/08 07:51:09;;;;;;;0.40;0.22;;;;;;;9.12;88.02;95072.69;10459663;27;96947;-62
2022/04/08 07:56:12;;;;;;;0.30;0.22;;;;;;;9.15;87.23;95076.78;10420700;27;96831;-64
2022/04/08 08:01:17;;;;;;;0.50;0.30;;;;;;;9.18;87.79;95074.66;10440149;27;96826;-62
2022/04/08 08:06:20;;;;;;;0.55;0.30;;;;;;;9.23;87.38;95066.34;10436529;27;98004;-64
2022/04/08 08:11:23;;;;;;;1.55;0.32;;;;;;;9.30;86.45;95067.28;10426146;27;97219;-62
2022/04/08 08:16:32;;;;;;;0.57;0.32;;;;;;;9.36;85.86;95061.38;10425549;27;96961;-63
2022/04/08 08:21:35;;;;;;;0.55;0.30;;;;;;;9.40;86.06;95062.69;10430140;27;96777;-63
2022/04/08 08:26:38;;;;;;;0.88;0.30;;;;;;;9.39;86.39;95066.28;10454820;27;97723;-63
2022/04/08 08:31:42;;;;;;;1.75;0.70;;;;;;;9.35;86.50;95058.94;10421803;27;96956;-62
2022/04/08 08:36:49;;;;;;;2.22;1.52;;;;;;;9.31;86.55;95063.69;10428313;27;96790;-62
2022/04/08 08:41:53;;;;;;;2.05;0.93;;;;;;;9.39;86.92;95066.28;10427290;27;96686;-62
2022/04/08 08:46:59;;;;;;;1.17;0.60;;;;;;;9.48;86.58;95067.88;10432984;27;97015;-64
2022/04/08 08:52:06;;;;;;;0.70;0.30;;;;;;;9.62;86.08;95078.59;10419432;27;98277;-62
2022/04/08 08:57:10;;;;;;;0.50;0.20;;;;;;;9.76;85.88;95062.22;10418452;27;98150;-63
2022/04/08 09:02:18;;;;;;;0.17;0.17;;;;;;;9.76;86.02;95066.63;10425010;27;96934;-65
2022/04/08 09:07:25;;;;;;;2.25;0.20;;;;;;;9.76;86.17;95080.47;10423614;27;102085;-62
2022/04/08 09:12:29;;;;;;;0.60;0.30;;;;;;;9.77;85.99;95082.09;10428337;27;97598;-63
2022/04/08 09:17:34;;;;;;;1.08;0.35;;;;;;;9.70;85.67;95088.97;10420044;27;97839;-63
2022/04/08 09:22:37;;;;;;;0.33;0.27;;;;;;;9.80;85.33;95089.59;10424756;27;96818;-62
2022/04/08 09:27:40;;;;;;;2.65;0.30;;;;;;;10.17;85.16;95084.66;10423448;27;97071;-62
2022/04/08 09:32:45;;;;;;;0.30;0.30;;;;;;;10.51;84.78;95081.63;10450631;27;96993;-64
2022/04/08 09:37:58;;;;;;;1.30;0.20;;;;;;;10.63;83.69;95073.34;10437088;27;97373;-62
2022/04/08 09:43:02;;;;;;;3.03;0.50;;;;;;;10.59;83.71;95078.91;10426351;27;97629;-62
2022/04/08 09:48:09;;;;;;;0.30;0.30;;;;;;;10.58;83.34;95098.22;10424766;27;96982;-63
2022/04/08 09:53:13;;;;;;;0.80;0.40;;;;;;;10.38;83.82;95099.66;10426887;27;96879;-64
2022/04/08 09:58:17;;;;;;;;;;;;;;;10.34;84.10;95093.16;10420873;27;98198;-62
2022/04/08 10:03:23;;;;;;;0.50;0.30;;;;;;;10.49;83.77;95088.78;10444107;27;97980;-62
2022/04/08 10:08:26;;;;;;;0.75;0.52;;;;;;;10.91;82.33;95071.78;10418418;27;97100;-62
2022/04/08 10:13:42;;;;;;;0.57;0.40;;;;;;;11.31;80.55;95072.38;10422759;27;97826;-64
2022/04/08 10:18:48;;;;;;;1.67;0.30;;;;;;;11.63;80.06;95069.56;10435854;27;97851;-63
2022/04/08 10:23:53;;;;;;;0.28;0.20;;;;;;;11.74;79.78;95061.22;10417327;27;96770;-62
2022/04/08 10:28:57;;;;;;;0.50;0.30;;;;;;;11.53;78.71;95056.75;10419028;27;98733;-63
2022/04/08 10:34:02;;;;;;;2.40;0.17;;;;;;;11.32;78.88;95037.38;10434614;27;97623;-63
2022/04/08 10:39:13;;;;;;;0.30;0.25;;;;;;;11.43;77.89;95022.22;10421506;27;98607;-64
2022/04/08 10:44:18;;;;;;;1.20;0.30;;;;;;;11.44;78.42;95024.66;10455933;27;97644;-66
2022/04/08 10:49:27;;;;;;;0.38;0.25;;;;;;;11.41;77.50;95014.56;10437510;27;98074;-63
2022/04/08 10:54:36;;;;;;;0.30;0.27;;;;;;;11.40;77.54;95001.66;10430526;27;97802;-63
2022/04/08 10:59:40;;;;;;;0.47;0.30;;;;;;;11.57;77.21;94989.19;10442226;27;96916;-63
2022/04/08 11:04:44;;;;;;;1.00;0.50;;;;;;;11.76;76.27;94972.91;10441307;27;96866;-63
2022/04/08 11:09:54;;;;;;;0.60;0.45;;;;;;;11.78;75.70;94972.72;10433404;27;97104;-63
2022/04/08 11:14:58;;;;;;;0.70;0.40;;;;;;;11.78;75.34;94967.47;10426257;27;100510;-69
2022/04/08 11:20:05;;;;;;;1.77;0.30;;;;;;;11.80;75.85;94955.00;10445017;27;97916;-63
2022/04/08 11:25:10;;;;;;;0.32;0.25;;;;;;;11.82;74.98;94943.38;10424705;27;96794;-64
2022/04/08 11:30:19;;;;;;;0.45;0.30;;;;;;;11.76;75.42;94943.31;10436798;27;96964;-64
2022/04/08 11:35:31;;;;;;;1.05;0.65;;;;;;;11.87;75.17;94924.50;10420364;27;96953;-63
2022/04/08 11:40:34;;;;;;;3.00;0.43;;;;;;;11.85;74.08;94942.19;10425616;27;96925;-64
2022/04/08 11:45:37;;;;;;;0.93;0.30;;;;;;;11.78;74.67;94925.63;10434910;27;97008;-63
2022/04/08 11:50:42;;;;;;;1.00;0.32;;;;;;;11.47;75.29;94953.69;10421506;27;97210;-63
2022/04/08 11:55:56;;;;;;;0.45;0.32;;;;;;;11.09;77.21;94937.34;10422285;27;97062;-62
2022/04/08 12:01:01;;;;;;;0.60;0.22;;;;;;;10.93;77.36;94938.34;10428029;27;101686;-63
2022/04/08 12:06:06;;;;;;;0.98;0.38;;;;;;;10.72;78.51;94949.53;10439266;27;97424;-63
2022/04/08 12:11:13;;;;;;;0.68;0.35;;;;;;;10.65;78.56;94940.78;10455551;27;97784;-64
2022/04/08 12:16:18;;;;;;;0.88;0.32;;;;;;;10.61;78.77;94941.13;10434855;27;97200;-64
2022/04/08 12:21:24;;;;;;;;;;;;;;;10.62;78.68;94944.59;10439792;27;96787;-63
2022/04/08 12:26:29;;;;;;;0.70;0.40;;;;;;;10.60;79.19;94926.47;10447367;27;97084;-65
2022/04/08 12:31:31;;;;;;;0.82;0.60;;;;;;;10.69;78.91;94916.75;10445594;27;97911;-63
2022/04/08 12:36:36;;;;;;;0.70;0.30;;;;;;;10.67;78.62;94908.28;10446790;27;96790;-63
2022/04/08 12:41:40;;;;;;;0.45;0.38;;;;;;;10.52;79.30;94908.28;10440917;27;98411;-62
2022/04/08 12:46:43;;;;;;;0.85;0.43;;;;;;;10.39;79.54;94888.03;10442499;27;96988;-62
2022/04/08 12:51:47;;;;;;;0.45;0.43;;;;;;;10.38;79.84;94896.03;10451286;27;99721;-62
2022/04/08 12:56:51;;;;;;;;;;;;;;;10.50;79.52;94886.75;10443257;27;98625;-62
2022/04/08 13:01:54;;;;;;;0.75;0.30;;;;;;;10.49;79.72;94887.75;10439038;27;101422;-62
2022/04/08 13:07:00;;;;;;;0.80;0.50;;;;;;;10.55;79.16;94879.19;10443194;27;98208;-63
2022/04/08 13:12:03;;;;;;;1.15;0.60;;;;;;;10.65;78.15;94867.66;10450515;27;96993;-63
2022/04/08 13:17:06;;;;;;;0.52;0.40;;;;;;;10.69;78.09;94856.69;10443149;27;98708;-64
2022/04/08 13:22:12;;;;;;;0.60;0.35;;;;;;;10.69;78.24;94850.66;10451655;27;96890;-63
2022/04/08 13:27:14;;;;;;;0.90;0.50;;;;;;;10.66;78.60;94851.81;10440902;27;97206;-62
2022/04/08 13:32:18;;;;;;;1.50;0.68;;;;;;;10.70;78.51;94850.44;10432642;27;101529;-63
2022/04/08 13:37:24;;;;;;;1.48;0.60;;;;;;;10.73;77.94;94833.63;10434512;27;96929;-63
2022/04/08 13:42:28;;;;;;;1.52;0.60;;;;;;;10.81;78.09;94820.47;10438675;27;96852;-63
2022/04/08 13:47:31;;;;;;;1.73;0.60;;;;;;;10.82;77.30;94856.00;10430704;27;96804;-63
2022/04/08 13:52:35;;;;;;;1.98;0.50;;;;;;;10.79;78.15;94832.88;10432430;27;97211;-65
2022/04/08 13:57:38;;;;;;;0.80;0.53;;;;;;;10.92;77.75;94819.97;10432631;27;98093;-63
2022/04/08 14:02:41;;;;;;;1.25;0.73;;;;;;;10.98;77.64;94810.56;10429093;27;98603;-66
2022/04/08 14:07:45;;;;;;;1.38;0.70;;;;;;;11.02;77.44;94806.59;10430708;27;101179;-62
2022/04/08 14:12:49;;;;;;;1.85;0.82;;;;;;;11.16;77.42;94802.31;10445638;27;98057;-63
2022/04/08 14:17:51;;;;;;;1.17;0.50;;;;;;;11.28;76.46;94811.28;10444444;27;96891;-63
2022/04/08 14:22:56;;;;;;;1.33;0.77;;;;;;;11.17;76.06;94803.91;10441236;27;97533;-62
2022/04/08 14:28:00;;;;;;;2.10;1.10;;;;;;;11.26;75.67;94800.22;10447955;27;96984;-64
2022/04/08 14:33:03;;;;;;;1.07;0.67;;;;;;;11.39;75.31;94780.44;10432171;27;96988;-62
2022/04/08 14:38:07;;;;;;;1.70;0.80;;;;;;;11.36;74.83;94779.81;10437279;27;97239;-63
2022/04/08 14:43:10;;;;;;;1.37;0.70;;;;;;;11.45;74.74;94758.75;10443755;27;98432;-64
2022/04/08 14:48:13;;;;;;;1.15;0.75;;;;;;;11.39;74.60;94749.06;10444589;27;98835;-63
2022/04/08 14:53:17;;;;;;;1.63;0.70;;;;;;;11.28;74.56;94739.91;10437229;27;99616;-63
2022/04/08 14:58:21;;;;;;;1.92;0.80;;;;;;;11.17;74.89;94735.97;10433459;27;98240;-63
2022/04/08 15:03:25;;;;;;;2.47;0.90;;;;;;;11.05;75.10;94767.03;10433463;27;97041;-64
2022/04/08 15:08:30;;;;;;;1.70;0.85;;;;;;;10.77;76.80;94787.84;10438381;27;96896;-64
2022/04/08 15:13:33;;;;;;;5.57;2.67;;;;;;;10.30;78.94;94802.16;10445312;27;96851;-67
2022/04/08 15:18:36;;;;;;;5.70;4.63;;;;;;;10.11;80.35;94800.91;10433651;27;98882;-62
2022/04/08 15:23:40;;;;;;;2.15;1.00;;;;;;;10.09;80.71;94816.72;10428896;27;98691;-63
2022/04/08 15:28:43;;;;;;;5.33;3.90;;;;;;;9.92;81.73;94799.63;10436528;27;97901;-62
2022/04/08 15:33:48;;;;;;;3.00;2.50;;;;;;;9.88;81.95;94786.13;10432946;27;97518;-64
2022/04/08 15:38:52;;;;;;;2.75;1.00;;;;;;;10.04;82.35;94785.16;10433315;27;96777;-63
2022/04/08 15:43:55;;;;;;;1.40;0.80;;;;;;;10.19;82.15;94775.53;10444644;27;97583;-63
2022/04/08 15:48:58;;;;;;;1.08;0.70;;;;;;;10.23;81.63;94775.97;10423295;27;97995;-63
2022/04/08 15:54:04;;;;;;;2.55;1.10;;;;;;;10.31;82.03;94770.66;10418533;27;96877;-64
2022/04/08 15:59:08;;;;;;;1.70;0.90;;;;;;;10.38;81.73;94742.81;10444153;27;97545;-63
2022/04/08 16:04:11;;;;;;;2.50;0.90;;;;;;;10.67;81.07;94753.38;10432536;27;98048;-64
2022/04/08 16:09:16;;;;;;;1.67;0.88;;;;;;;10.95;79.97;94738.59;10438134;27;97453;-63
2022/04/08 16:14:19;;;;;;;1.42;0.98;;;;;;;10.75;80.17;94737.59;10430360;27;98636;-64
2022/04/08 16:19:22;;;;;;;1.65;1.10;;;;;;;10.59;80.71;94729.00;10426245;27;97595;-64
2022/04/08 16:24:26;;;;;;;2.75;1.15;;;;;;;10.50;80.50;94724.88;10432655;27;97222;-63
2022/04/08 16:29:30;;;;;;;2.75;1.52;;;;;;;10.48;81.01;94708.59;10424847;27;96970;-65
2022/04/08 16:34:33;;;;;;;8.27;4.63;;;;;;;10.52;81.15;94696.78;10434397;27;99297;-61
2022/04/08 16:39:38;;;;;;;4.43;2.13;;;;;;;10.65;80.95;94687.47;10428823;27;97901;-63
2022/04/08 16:44:40;;;;;;;4.15;1.42;;;;;;;10.59;81.18;94671.53;10435130;27;98533;-63
2022/04/08 16:49:44;;;;;;;3.00;1.33;;;;;;;10.64;81.02;94662.38;10427866;27;97160;-63
2022/04/08 16:54:49;;;;;;;3.80;1.25;;;;;;;10.56;81.36;94671.91;10440882;27;97064;-63
2022/04/08 16:59:52;;;;;;;2.00;1.27;;;;;;;10.45;80.98;94685.47;10417699;27;98618;-66
2022/04/08 17:04:56;;;;;;;2.58;1.58;;;;;;;10.51;80.70;94663.03;10419588;27;97578;-64
2022/04/08 17:10:01;;;;;;;2.95;1.60;;;;;;;10.69;80.12;94660.00;10431530;27;97808;-64
2022/04/08 17:15:04;;;;;;;3.90;1.40;;;;;;;10.71;79.81;94666.63;10437536;27;101165;-63
2022/04/08 17:20:09;;;;;;;2.33;1.13;;;;;;;10.70;79.58;94656.38;10425683;27;97199;-64
2022/04/08 17:25:14;;;;;;;2.90;1.25;;;;;;;10.66;78.95;94655.16;10427243;27;98331;-63
2022/04/08 17:30:17;;;;;;;1.80;1.10;;;;;;;10.59;78.76;94650.66;10417496;27;97052;-68
2022/04/08 17:35:21;;;;;;;4.38;1.23;;;;;;;10.50;78.24;94651.78;10431970;27;96897;-63
2022/04/08 17:40:28;;;;;;;1.90;1.10;;;;;;;10.42;77.56;94652.69;10429297;27;98578;-63
2022/04/08 17:45:32;;;;;;;2.10;1.13;;;;;;;10.39;78.02;94636.59;10419770;27;96920;-63
2022/04/08 17:50:34;;;;;;;1.85;1.13;;;;;;;10.58;76.20;94620.34;10440154;27;97106;-64
2022/04/08 17:55:39;;;;;;;3.78;1.42;;;;;;;10.69;75.81;94628.66;10449320;27;96783;-64
2022/04/08 18:00:42;;;;;;;2.00;1.30;;;;;;;10.68;75.74;94625.22;10441110;27;97587;-65
2022/04/08 18:05:46;;;;;;;3.35;1.38;;;;;;;10.70;75.56;94623.22;10443261;27;97074;-64
2022/04/08 18:11:07;;;;;;;1.73;1.17;;;;;;;10.67;75.41;94625.41;10448304;27;101102;-64
2022/04/08 18:16:10;;;;;;;1.65;0.82;;;;;;;10.75;74.18;94630.50;10439889;27;97670;-63
2022/04/08 18:21:13;;;;;;;3.30;1.25;;;;;;;10.83;72.66;94624.34;10430206;27;96858;-65
2022/04/08 18:26:18;;;;;;;1.60;0.80;;;;;;;10.91;72.28;94629.41;10441398;27;96861;-64
2022/04/08 18:31:21;;;;;;;1.27;0.80;;;;;;;10.88;71.77;94627.22;10437768;27;96827;-64
2022/04/08 18:36:24;;;;;;;1.77;0.80;;;;;;;10.82;72.48;94626.13;10439738;27;97510;-63
2022/04/08 18:41:29;;;;;;;2.92;1.25;;;;;;;10.90;71.54;94627.81;10448455;27;99275;-63
2022/04/08 18:46:31;;;;;;;2.60;2.00;;;;;;;10.81;72.51;94624.53;10443624;27;98385;-68
2022/04/08 18:51:35;;;;;;;2.78;1.20;;;;;;;10.72;73.11;94630.88;10442055;27;96866;-65
2022/04/08 18:56:40;;;;;;;2.15;1.10;;;;;;;10.71;73.24;94626.66;10442438;27;96873;-64
2022/04/08 19:01:44;;;;;;;3.67;1.02;;;;;;;10.72;73.16;94639.53;10441155;27;100074;-62
2022/04/08 19:06:47;;;;;;;2.38;0.90;;;;;;;10.81;71.90;94632.38;10444625;27;97158;-63
2022/04/08 19:11:53;;;;;;;2.70;1.00;;;;;;;10.92;70.78;94624.00;10441503;27;97511;-64
2022/04/08 19:16:57;;;;;;;1.95;1.10;;;;;;;10.96;71.21;94619.22;10442058;27;96873;-63
2022/04/08 19:22:00;;;;;;;2.20;1.50;;;;;;;10.95;71.37;94628.88;10448866;27;97090;-63
2022/04/08 19:27:06;;;;;;;1.63;0.85;;;;;;;10.96;70.73;94640.94;10446247;27;98067;-63
2022/04/08 19:32:10;;;;;;;2.58;1.02;;;;;;;11.03;70.05;94630.50;10442552;27;96919;-65
2022/04/08 19:37:13;;;;;;;3.33;1.20;;;;;;;11.20;68.04;94641.50;10438534;27;97917;-64
2022/04/08 19:42:17;;;;;;;1.92;0.98;;;;;;;11.32;66.71;94645.22;10438070;27;97375;-63
2022/04/08 19:47:21;;;;;;;3.00;0.90;;;;;;;11.51;64.18;94648.16;10430148;27;99161;-64
2022/04/08 19:52:24;;;;;;;2.45;1.00;;;;;;;11.60;62.52;94652.22;10438548;27;97864;-63
2022/04/08 19:57:28;;;;;;;3.33;1.30;;;;;;;11.60;62.57;94633.91;10433742;27;98102;-63
2022/04/08 20:02:31;;;;;;;2.58;0.90;;;;;;;11.55;63.51;94665.91;10435546;27;97193;-63
2022/04/08 20:07:34;;;;;;;1.77;0.60;;;;;;;11.54;63.50;94666.09;10453588;27;98523;-62
2022/04/08 20:12:39;;;;;;;2.80;0.85;;;;;;;11.44;65.22;94663.00;10447909;27;96832;-63
2022/04/08 20:17:42;;;;;;;3.13;1.17;;;;;;;11.35;65.00;94691.91;10440352;27;96982;-65
2022/04/08 20:22:45;;;;;;;1.80;0.98;;;;;;;11.41;62.93;94679.06;10438881;27;97623;-63
2022/04/08 20:27:50;;;;;;;6.63;1.00;;;;;;;11.39;61.88;94665.38;10437222;27;97036;-62
2022/04/08 20:32:52;;;;;;;4.18;0.93;;;;;;;11.56;58.77;94656.25;10433736;27;97839;-63
2022/04/08 20:37:58;;;;;;;2.08;0.98;;;;;;;11.58;58.21;94687.44;10435587;27;98123;-63
2022/04/08 20:43:03;;;;;;;2.10;0.68;;;;;;;11.48;58.05;94680.72;10440432;27;101336;-63
2022/04/08 20:48:06;;;;;;;3.23;0.90;;;;;;;11.41;58.62;94679.06;10433095;27;97392;-64
2022/04/08 20:53:13;;;;;;;2.22;1.10;;;;;;;11.56;55.76;94687.63;10441554;27;97042;-63
2022/04/08 20:58:18;;;;;;;3.05;1.00;;;;;;;11.44;57.08;94673.47;10434507;27;97307;-63
2022/04/08 21:03:21;;;;;;;3.63;1.23;;;;;;;11.45;56.89;94686.34;10434947;27;100113;-65
2022/04/08 21:08:24;;;;;;;2.17;0.98;;;;;;;11.34;57.68;94682.44;10434717;27;97538;-63
2022/04/08 21:13:29;;;;;;;3.03;1.10;;;;;;;11.30;56.65;94699.47;10437652;27;98798;-63
2022/04/08 21:18:34;;;;;;;4.00;1.10;;;;;;;11.25;56.49;94712.31;10430738;27;97252;-67
2022/04/08 21:23:43;;;;;;;3.70;1.08;;;;;;;11.11;56.64;94702.75;10435609;27;97122;-63
2022/04/08 21:28:48;;;;;;;5.32;1.55;;;;;;;10.87;58.53;94717.03;10435449;27;98568;-71
2022/04/08 21:33:50;;;;;;;3.93;1.30;;;;;;;9.85;62.84;94769.06;10436702;27;98531;-72
2022/04/08 21:38:54;;;;;;;11.27;1.55;;;;;;;9.14;63.89;94752.09;10436326;27;96859;-72
2022/04/08 21:43:58;;;;;;;5.32;1.30;;;;;;;9.01;63.30;94766.50;10439040;27;97395;-73
2022/04/08 21:49:01;;;;;;;2.83;1.17;;;;;;;9.50;61.37;94756.69;10439631;27;101505;-73
2022/04/08 21:54:04;;;;;;;3.80;1.23;;;;;;;10.17;56.81;94751.41;10451089;27;96999;-72
2022/04/08 21:59:09;;;;;;;7.07;1.30;;;;;;;10.62;55.11;94748.72;10430207;27;97416;-71
2022/04/08 22:04:12;;;;;;;4.00;1.50;;;;;;;10.76;54.01;94754.91;10435209;27;98480;-75
2022/04/08 22:09:15;;;;;;;4.03;1.17;;;;;;;10.63;53.76;94804.38;10434775;27;96775;-69
2022/04/08 22:14:19;;;;;;;7.30;1.27;;;;;;;10.49;55.49;94817.25;10435643;27;98716;-72
2022/04/08 22:19:22;;;;;;;6.30;1.80;;;;;;;10.33;55.86;94827.91;10440823;27;97974;-70
2022/04/08 22:24:25;;;;;;;3.65;1.25;;;;;;;9.69;57.63;94834.41;10431820;27;97514;-68
2022/04/08 22:29:29;;;;;;;5.18;1.35;;;;;;;9.72;57.26;94821.00;10433197;27;98653;-71
2022/04/08 22:34:32;;;;;;;7.50;1.67;;;;;;;7.68;68.68;94868.66;10437240;27;96815;-72
2022/04/08 22:39:35;;;;;;;2.83;0.80;;;;;;;6.87;74.11;94853.78;10443798;27;98954;-71
2022/04/08 22:44:39;;;;;;;5.50;1.23;;;;;;;6.78;73.64;94819.22;10448802;27;96997;-71
2022/04/08 22:49:42;;;;;;;3.93;1.33;;;;;;;6.91;72.03;94876.69;10442502;27;97950;-73
2022/04/08 22:54:45;;;;;;;4.13;1.05;;;;;;;7.02;70.84;94880.78;10450431;27;96938;-72
2022/04/08 22:59:49;;;;;;;2.20;0.80;;;;;;;7.06;71.23;94882.13;10454644;27;97119;-72
2022/04/08 23:04:52;;;;;;;2.70;0.60;;;;;;;7.04;70.49;94907.41;10447925;27;98024;-72
2022/04/08 23:09:55;;;;;;;1.85;0.60;;;;;;;7.09;70.98;94909.53;10445876;27;99179;-72
2022/04/08 23:14:59;;;;;;;3.88;1.05;;;;;;;7.02;71.44;94940.50;10450091;27;97099;-72
2022/04/08 23:20:02;;;;;;;4.55;0.80;;;;;;;7.26;69.34;94947.56;10444844;27;97131;-72
2022/04/08 23:25:06;;;;;;;6.85;1.05;;;;;;;7.67;68.21;94928.63;10447574;27;98048;-72
2022/04/08 23:30:11;;;;;;;3.97;0.68;;;;;;;8.07;66.53;94950.41;10444177;27;97268;-72
2022/04/08 23:35:14;;;;;;;4.53;0.80;;;;;;;7.90;67.48;94962.59;10448801;27;100846;-72
2022/04/08 23:40:17;;;;;;;4.47;0.70;;;;;;;7.89;66.71;94940.16;10447811;27;96936;-72